F/V Le Natif 2 — FKVW — position and weather

sailwx.info

Track history (hours):
 
Tides and Currents Weather Stations Pressure Air Temp Water Temp Dewpoint Dewpoint Depression Visibility Wind Speed Wind Dir Waves Ship Positions

F/V Le Natif 2

Last reported at 2016-Aug-28 03:26 UTC. Time now 2016-Aug-28 20:38 UTC.
Position N 46°39' W 001°57'.

Length 16 m.

Type: Fishing. MMSI: 228131600.

Date/timePositionNaut miles runAvg speedWind from/ knotsBaromVisibWave heightAir tempDewpointWater temp
2016-Aug-28 03:26N 46°39' W 001°57'  
2016-Aug-25 16:34N 46°42' W 001°56'1 1.1
2016-Aug-25 15:34N 46°41' W 001°57'9 9.4
2016-Aug-25 14:33N 46°32' W 001°53'10 9.6
2016-Aug-25 13:34N 46°23' W 001°49'9 8.9
2016-Aug-25 12:33N 46°14' W 001°44'2 1.5
2016-Aug-25 11:34N 46°13' W 001°43'1 1.1
2016-Aug-25 10:34N 46°12' W 001°42'6 6.2
2016-Aug-25 09:34N 46°06' W 001°41'3 2.8
2016-Aug-25 08:33N 46°04' W 001°38'2 2.2
2016-Aug-25 07:31N 46°02' W 001°37'1 1.2
2016-Aug-25 06:33N 46°03' W 001°36'7 3.3
2016-Aug-25 04:33N 45°58' W 001°43'3 2.6
2016-Aug-25 03:33N 45°59' W 001°46'3 3.5
2016-Aug-25 02:33N 46°02' W 001°50'3 3.4
2016-Aug-25 01:34N 46°04' W 001°53'4 3.6
2016-Aug-25 00:33N 46°08' W 001°53'4 3.8
2016-Aug-24 23:34N 46°12' W 001°54'4 3.8
2016-Aug-24 22:34N 46°16' W 001°55'4 3.8
2016-Aug-24 21:33N 46°19' W 001°58'4 3.8
2016-Aug-24 20:34N 46°22' W 002°00'7 7.0
2016-Aug-24 19:34N 46°29' W 001°59'8 8.4
2016-Aug-24 18:33N 46°37' W 001°58'4 4.5
2016-Aug-24 17:34N 46°42' W 001°57'0 0.1
2016-Aug-24 16:33N 46°42' W 001°56'1 1.2
2016-Aug-24 15:33N 46°41' W 001°57'9 9.4
2016-Aug-24 14:34N 46°32' W 001°52'9 9.5
2016-Aug-24 13:34N 46°23' W 001°48'9 9.3
2016-Aug-24 12:34N 46°14' W 001°42'9 8.9
2016-Aug-24 11:33N 46°06' W 001°38'3 2.8
2016-Aug-24 10:33N 46°03' W 001°36'1 1.5
2016-Aug-24 09:34N 46°02' W 001°37'3 2.6
2016-Aug-24 08:33N 46°04' W 001°37'2 2.0
2016-Aug-24 07:34N 46°05' W 001°35'3 2.8
2016-Aug-24 06:33N 46°07' W 001°38'13 6.4
2016-Aug-24 04:34N 46°19' W 001°47'1 0.6
2016-Aug-24 03:34N 46°18' W 001°47'1 1.1
2016-Aug-24 02:34N 46°17' W 001°48'1 0.8
2016-Aug-24 01:34N 46°16' W 001°48'1 0.7
2016-Aug-24 00:33N 46°16' W 001°47'4 4.2
2016-Aug-23 23:33N 46°20' W 001°49'6 6.4
2016-Aug-23 22:33N 46°26' W 001°51'7 6.6
2016-Aug-23 21:33N 46°32' W 001°54'7 7.1
2016-Aug-23 20:33N 46°39' W 001°57'3 2.6
2016-Aug-23 19:33N 46°42' W 001°56'0 0.0
2016-Aug-23 18:34N 46°42' W 001°56'7 7.2
2016-Aug-23 17:34N 46°35' W 001°54'9 9.2
2016-Aug-23 16:34N 46°26' W 001°50'9 9.3
2016-Aug-23 15:34N 46°18' W 001°43'10 9.7
2016-Aug-23 14:33N 46°09' W 001°37'2 1.1
2016-Aug-23 12:26N 46°07' W 001°37'4 4.3
2016-Aug-23 11:34N 46°10' W 001°40'5 4.9
2016-Aug-23 10:29N 46°14' W 001°46'0 0.3
2016-Aug-23 09:34N 46°14' W 001°45'1 0.4
2016-Aug-23 08:18N 46°15' W 001°46'1 1.3
2016-Aug-23 07:33N 46°14' W 001°44'1 1.5
2016-Aug-23 06:34N 46°13' W 001°43'1 1.2
2016-Aug-23 05:34N 46°12' W 001°43'4 3.8
2016-Aug-23 04:34N 46°09' W 001°39'4 3.8
2016-Aug-23 03:27N 46°05' W 001°37'8 8.8
2016-Aug-23 02:33N 45°58' W 001°33'13 0.9
2016-Aug-22 12:24N 45°45' W 001°36'7 3.6
2016-Aug-22 10:19N 45°53' W 001°37'7 8.9
2016-Aug-22 09:31N 45°59' W 001°39'5 4.9
2016-Aug-22 08:33N 46°04' W 001°40'0 0.2
2016-Aug-22 07:27N 46°04' W 001°40'7 7.8
2016-Aug-22 06:33N 46°11' W 001°42'8 8.5
2016-Aug-22 05:34N 46°18' W 001°49'9 8.7
2016-Aug-22 04:34N 46°27' W 001°52'9 8.6
2016-Aug-22 03:34N 46°35' W 001°56'7 6.8
2016-Aug-22 02:33N 46°42' W 001°56'3 0.3
2016-Aug-21 15:34N 46°39' W 001°56'8 7.9
2016-Aug-21 14:33N 46°31' W 001°53'8 8.1
2016-Aug-21 13:34N 46°24' W 001°48'9 8.6
2016-Aug-21 12:34N 46°16' W 001°44'8 1.4
2016-Aug-21 06:26N 46°08' W 001°40'8 9.1
2016-Aug-21 05:33N 46°15' W 001°44'8 7.9
2016-Aug-21 04:34N 46°21' W 001°52'9 8.6
2016-Aug-21 03:34N 46°29' W 001°54'8 8.4
2016-Aug-21 02:33N 46°38' W 001°57'4 4.2
2016-Aug-21 01:33N 46°42' W 001°56'0 0.0
2016-Aug-19 12:33N 46°42' W 001°56'0 0.0
2016-Aug-19 11:06N 46°42' W 001°56'0 0.0
2016-Aug-19 10:33N 46°42' W 001°56'0 0.0
2016-Aug-19 09:33N 46°42' W 001°56'0 0.0
2016-Aug-19 08:33N 46°42' W 001°56'0 0.0
2016-Aug-19 07:33N 46°42' W 001°56'0 0.0
2016-Aug-19 06:34N 46°42' W 001°56'0 0.0
2016-Aug-19 05:33N 46°42' W 001°56'0 0.0
2016-Aug-19 04:33N 46°42' W 001°56'0 0.0
2016-Aug-18 19:03N 46°42' W 001°56'0 0.0
2016-Aug-18 17:33N 46°42' W 001°56'1 0.7
2016-Aug-18 16:33N 46°41' W 001°57'8 8.5
2016-Aug-18 15:33N 46°33' W 001°54'7 6.5
2016-Aug-18 14:33N 46°29' W 001°47'1 1.2
2016-Aug-18 13:33N 46°30' W 001°48'  
Track history (hours):
 
Tides and Currents Weather Stations Pressure Air Temp Water Temp Dewpoint Dewpoint Depression Visibility Wind Speed Wind Dir Waves Ship Positions

F/V Le Natif 2

Last reported at 2016-Aug-28 03:26 UTC. Time now 2016-Aug-28 20:38 UTC.
Position N 46°39' W 001°57'.

Length 16 m.

Type: Fishing. MMSI: 228131600.

Date/timePositionNaut miles runAvg speedWind from/ knotsBaromVisibWave heightAir tempDewpointWater temp
2016-Aug-28 03:26N 46°39' W 001°57'  
2016-Aug-25 16:34N 46°42' W 001°56'1 1.1
2016-Aug-25 15:34N 46°41' W 001°57'9 9.4
2016-Aug-25 14:33N 46°32' W 001°53'10 9.6
2016-Aug-25 13:34N 46°23' W 001°49'9 8.9
2016-Aug-25 12:33N 46°14' W 001°44'2 1.5
2016-Aug-25 11:34N 46°13' W 001°43'1 1.1
2016-Aug-25 10:34N 46°12' W 001°42'6 6.2
2016-Aug-25 09:34N 46°06' W 001°41'3 2.8
2016-Aug-25 08:33N 46°04' W 001°38'2 2.2
2016-Aug-25 07:31N 46°02' W 001°37'1 1.2
2016-Aug-25 06:33N 46°03' W 001°36'7 3.3
2016-Aug-25 04:33N 45°58' W 001°43'3 2.6
2016-Aug-25 03:33N 45°59' W 001°46'3 3.5
2016-Aug-25 02:33N 46°02' W 001°50'3 3.4
2016-Aug-25 01:34N 46°04' W 001°53'4 3.6
2016-Aug-25 00:33N 46°08' W 001°53'4 3.8
2016-Aug-24 23:34N 46°12' W 001°54'4 3.8
2016-Aug-24 22:34N 46°16' W 001°55'4 3.8
2016-Aug-24 21:33N 46°19' W 001°58'4 3.8
2016-Aug-24 20:34N 46°22' W 002°00'7 7.0
2016-Aug-24 19:34N 46°29' W 001°59'8 8.4
2016-Aug-24 18:33N 46°37' W 001°58'4 4.5
2016-Aug-24 17:34N 46°42' W 001°57'0 0.1
2016-Aug-24 16:33N 46°42' W 001°56'1 1.2
2016-Aug-24 15:33N 46°41' W 001°57'9 9.4
2016-Aug-24 14:34N 46°32' W 001°52'9 9.5
2016-Aug-24 13:34N 46°23' W 001°48'9 9.3
2016-Aug-24 12:34N 46°14' W 001°42'9 8.9
2016-Aug-24 11:33N 46°06' W 001°38'3 2.8
2016-Aug-24 10:33N 46°03' W 001°36'1 1.5
2016-Aug-24 09:34N 46°02' W 001°37'3 2.6
2016-Aug-24 08:33N 46°04' W 001°37'2 2.0
2016-Aug-24 07:34N 46°05' W 001°35'3 2.8
2016-Aug-24 06:33N 46°07' W 001°38'13 6.4
2016-Aug-24 04:34N 46°19' W 001°47'1 0.6
2016-Aug-24 03:34N 46°18' W 001°47'1 1.1
2016-Aug-24 02:34N 46°17' W 001°48'1 0.8
2016-Aug-24 01:34N 46°16' W 001°48'1 0.7
2016-Aug-24 00:33N 46°16' W 001°47'4 4.2
2016-Aug-23 23:33N 46°20' W 001°49'6 6.4
2016-Aug-23 22:33N 46°26' W 001°51'7 6.6
2016-Aug-23 21:33N 46°32' W 001°54'7 7.1
2016-Aug-23 20:33N 46°39' W 001°57'3 2.6
2016-Aug-23 19:33N 46°42' W 001°56'0 0.0
2016-Aug-23 18:34N 46°42' W 001°56'7 7.2
2016-Aug-23 17:34N 46°35' W 001°54'9 9.2
2016-Aug-23 16:34N 46°26' W 001°50'9 9.3
2016-Aug-23 15:34N 46°18' W 001°43'10 9.7
2016-Aug-23 14:33N 46°09' W 001°37'2 1.1
2016-Aug-23 12:26N 46°07' W 001°37'4 4.3
2016-Aug-23 11:34N 46°10' W 001°40'5 4.9
2016-Aug-23 10:29N 46°14' W 001°46'0 0.3
2016-Aug-23 09:34N 46°14' W 001°45'1 0.4
2016-Aug-23 08:18N 46°15' W 001°46'1 1.3
2016-Aug-23 07:33N 46°14' W 001°44'1 1.5
2016-Aug-23 06:34N 46°13' W 001°43'1 1.2
2016-Aug-23 05:34N 46°12' W 001°43'4 3.8
2016-Aug-23 04:34N 46°09' W 001°39'4 3.8
2016-Aug-23 03:27N 46°05' W 001°37'8 8.8
2016-Aug-23 02:33N 45°58' W 001°33'13 0.9
2016-Aug-22 12:24N 45°45' W 001°36'7 3.6
2016-Aug-22 10:19N 45°53' W 001°37'7 8.9
2016-Aug-22 09:31N 45°59' W 001°39'5 4.9
2016-Aug-22 08:33N 46°04' W 001°40'0 0.2
2016-Aug-22 07:27N 46°04' W 001°40'7 7.8
2016-Aug-22 06:33N 46°11' W 001°42'8 8.5
2016-Aug-22 05:34N 46°18' W 001°49'9 8.7
2016-Aug-22 04:34N 46°27' W 001°52'9 8.6
2016-Aug-22 03:34N 46°35' W 001°56'7 6.8
2016-Aug-22 02:33N 46°42' W 001°56'3 0.3
2016-Aug-21 15:34N 46°39' W 001°56'8 7.9
2016-Aug-21 14:33N 46°31' W 001°53'8 8.1
2016-Aug-21 13:34N 46°24' W 001°48'9 8.6
2016-Aug-21 12:34N 46°16' W 001°44'8 1.4
2016-Aug-21 06:26N 46°08' W 001°40'8 9.1
2016-Aug-21 05:33N 46°15' W 001°44'8 7.9
2016-Aug-21 04:34N 46°21' W 001°52'9 8.6
2016-Aug-21 03:34N 46°29' W 001°54'8 8.4
2016-Aug-21 02:33N 46°38' W 001°57'4 4.2
2016-Aug-21 01:33N 46°42' W 001°56'0 0.0
2016-Aug-19 12:33N 46°42' W 001°56'0 0.0
2016-Aug-19 11:06N 46°42' W 001°56'0 0.0
2016-Aug-19 10:33N 46°42' W 001°56'0 0.0
2016-Aug-19 09:33N 46°42' W 001°56'0 0.0
2016-Aug-19 08:33N 46°42' W 001°56'0 0.0
2016-Aug-19 07:33N 46°42' W 001°56'0 0.0
2016-Aug-19 06:34N 46°42' W 001°56'0 0.0
2016-Aug-19 05:33N 46°42' W 001°56'0 0.0
2016-Aug-19 04:33N 46°42' W 001°56'0 0.0
2016-Aug-18 19:03N 46°42' W 001°56'0 0.0
2016-Aug-18 17:33N 46°42' W 001°56'1 0.7
2016-Aug-18 16:33N 46°41' W 001°57'8 8.5
2016-Aug-18 15:33N 46°33' W 001°54'7 6.5
2016-Aug-18 14:33N 46°29' W 001°47'1 1.2
2016-Aug-18 13:33N 46°30' W 001°48'  

Dump ship's entire track history